West Dennis, MA (02670)

10:11 AM EST on February 14, 2016 (GMT -0500)
Freydis Drive | | Change Station
CLOSE
Current Station
Personal Weather Station
Location: Dennis, MA
Elevation: 52 ft
Nearby Weather Stations
Active Advisory: Wind Chill Advisory Active Notice: Record Report, Local Storm Report

Elev 52 ft 41.70 °N, 70.16 °W | Updated 3 minutes ago

Partly Cloudy
Partly Cloudy
8.2 °F
Feels Like 8 °F
N
2.7
Wind Variable Wind from West

Today
High -- | Low -- °F
--% Chance of Precip.
Yesterday
High -- | Low -- °F
Precip. -- in
Pressure 30.31 in
Visibility 10.0 miles
Clouds Clear
Windchill 8 °F
Dew Point 0 °F
Humidity 69%
Rainfall 0.00 in
Snow Depth Not available.
6:38 AM 5:12 PM
Waxing Crescent, 42% visible
METAR KHYA 141456Z 31014G21KT 10SM CLR M17/M23 A3031 RMK AO2 SLP264 T11721228 50017
Pressure 30.31 in
Visibility 10.0 miles
Clouds Clear
Windchill 8 °F
Dew Point 0 °F
Humidity 69%
Rainfall 0.00 in
Snow Depth Not available.
6:38 AM 5:12 PM
Waxing Crescent, 42% visible
METAR KHYA 141456Z 31014G21KT 10SM CLR M17/M23 A3031 RMK AO2 SLP264 T11721228 50017

10-Day Weather Forecast

Almanac

Astronomy

Feb. 14, 2016 Rise Set
Actual Time
Civil Twilight
Nautical Twilight
Astronomical Twilight
Moon
Length of Visible Light
Length of Day
Tomorrow will be .
, % of the Moon is Illuminated

Today's Extremes

State Highs State Lows

Community

WunderPhotos

Upload Photos

1,892,788 photos uploaded!

WunderBlog® & News

Nearby

Air Quality

  Air Quality AQ Index Pollutant
Not available.

Snow Depth

Station Depth Elevation

Earthquake Activity

City Distance Mag. Time & Date
Minimum magnitude displayed is 2.5.

Coastal Water Temperatures

Place Temperature

Stations

Nearby Weather Stations

Station Location Temp. Windchill Dew Point Humidity Wind Precip. Elev Updated Type
                   

Watches & Warnings

Wind Chill Advisory
Issued: 4:13 AM EST Feb. 14, 2016 – National Weather Service

... Wind Chill Advisory remains in effect until noon EST today...

* locations... include Cape Cod... Nantucket... Marthas Vineyard...
and Block Island.

* Hazard types... dangerously cold wind chills

* wind chill readings... between 15 and 24 below.

* Timing... the worst of the wind chills will occur this morning.

* Impacts... wind chills this cold can bring on frostbite in as
little as 30 minutes! Outdoor exposure should be limited in
these conditions.

* Air temperatures... lows early this morning will be between 0 and
5 below.

Precautionary/preparedness actions...

A Wind Chill Advisory is issued when the wind chill index is
likely to reach -15 to -24 degrees for at least 3 hours.
Frostbite can develop in just 30 minutes with a wind chill index
of -20. If you are heading outdoors... dress in layers and wear a
hat and gloves.



Frank

For the latest updates... please visit our webpage at
www.Weather.Gov/Boston

You can follow US on facebook at
www.Facebook.Com/nwsboston